sensor_id;sensor_type;location;lat;lon;timestamp;temperature;humidity
13585;DHT22;6863;48.402;9.994;2023-03-04T00:01:50;-0.60;99.90
13585;DHT22;6863;48.402;9.994;2023-03-04T00:04:16;-0.60;99.90
13585;DHT22;6863;48.402;9.994;2023-03-04T00:06:42;-0.70;99.90
13585;DHT22;6863;48.402;9.994;2023-03-04T00:09:07;-0.60;99.90
13585;DHT22;6863;48.402;9.994;2023-03-04T00:11:33;-0.60;99.90
13585;DHT22;6863;48.402;9.994;2023-03-04T00:13:58;-0.70;99.90
13585;DHT22;6863;48.402;9.994;2023-03-04T00:16:24;-0.80;99.90
13585;DHT22;6863;48.402;9.994;2023-03-04T00:18:54;-0.80;99.90
13585;DHT22;6863;48.402;9.994;2023-03-04T00:21:20;-0.80;99.90
13585;DHT22;6863;48.402;9.994;2023-03-04T00:23:46;-0.80;99.90
13585;DHT22;6863;48.402;9.994;2023-03-04T00:26:11;-0.80;99.90
13585;DHT22;6863;48.402;9.994;2023-03-04T00:28:38;-0.80;99.90
13585;DHT22;6863;48.402;9.994;2023-03-04T00:31:08;-0.90;99.90
13585;DHT22;6863;48.402;9.994;2023-03-04T00:33:34;-0.90;99.90
13585;DHT22;6863;48.402;9.994;2023-03-04T00:36:00;-0.90;99.90
13585;DHT22;6863;48.402;9.994;2023-03-04T00:38:26;-0.80;99.90
13585;DHT22;6863;48.402;9.994;2023-03-04T00:40:52;-0.70;99.90
13585;DHT22;6863;48.402;9.994;2023-03-04T00:43:18;-0.60;99.90
13585;DHT22;6863;48.402;9.994;2023-03-04T00:45:43;-0.70;99.90
13585;DHT22;6863;48.402;9.994;2023-03-04T00:48:09;-0.70;99.90
13585;DHT22;6863;48.402;9.994;2023-03-04T00:50:36;-0.60;99.90
13585;DHT22;6863;48.402;9.994;2023-03-04T00:53:02;-0.60;99.90
13585;DHT22;6863;48.402;9.994;2023-03-04T00:55:27;-0.60;99.90
13585;DHT22;6863;48.402;9.994;2023-03-04T00:57:53;-0.70;99.90
13585;DHT22;6863;48.402;9.994;2023-03-04T01:00:19;-0.60;99.90
13585;DHT22;6863;48.402;9.994;2023-03-04T01:02:44;-0.50;99.90
13585;DHT22;6863;48.402;9.994;2023-03-04T01:05:10;-0.40;99.90
13585;DHT22;6863;48.402;9.994;2023-03-04T01:07:36;-0.50;99.90
13585;DHT22;6863;48.402;9.994;2023-03-04T01:10:03;-0.50;99.90
13585;DHT22;6863;48.402;9.994;2023-03-04T01:12:29;-0.40;99.90
13585;DHT22;6863;48.402;9.994;2023-03-04T01:14:55;-0.40;99.90
13585;DHT22;6863;48.402;9.994;2023-03-04T01:17:20;-0.50;99.90
13585;DHT22;6863;48.402;9.994;2023-03-04T01:19:46;-0.40;99.90
13585;DHT22;6863;48.402;9.994;2023-03-04T01:22:11;-0.50;99.90
13585;DHT22;6863;48.402;9.994;2023-03-04T01:24:39;-0.60;99.90
13585;DHT22;6863;48.402;9.994;2023-03-04T01:27:05;-0.60;99.90
13585;DHT22;6863;48.402;9.994;2023-03-04T01:29:31;-0.60;99.90
13585;DHT22;6863;48.402;9.994;2023-03-04T01:31:56;-0.60;99.90
13585;DHT22;6863;48.402;9.994;2023-03-04T01:34:22;-0.60;99.90
13585;DHT22;6863;48.402;9.994;2023-03-04T01:36:48;-0.70;99.90
13585;DHT22;6863;48.402;9.994;2023-03-04T01:39:13;-0.80;99.90
13585;DHT22;6863;48.402;9.994;2023-03-04T01:41:39;-0.90;99.90
13585;DHT22;6863;48.402;9.994;2023-03-04T01:44:04;-0.90;99.90
13585;DHT22;6863;48.402;9.994;2023-03-04T01:46:30;-1.00;99.90
13585;DHT22;6863;48.402;9.994;2023-03-04T01:48:56;-1.00;99.90
13585;DHT22;6863;48.402;9.994;2023-03-04T01:51:22;-1.10;99.90
13585;DHT22;6863;48.402;9.994;2023-03-04T01:53:49;-1.20;99.90
13585;DHT22;6863;48.402;9.994;2023-03-04T01:56:37;-1.20;99.90
13585;DHT22;6863;48.402;9.994;2023-03-04T02:01:52;-1.30;99.90
13585;DHT22;6863;48.402;9.994;2023-03-04T02:04:22;-1.40;99.90
13585;DHT22;6863;48.402;9.994;2023-03-04T02:06:49;-1.40;99.90
13585;DHT22;6863;48.402;9.994;2023-03-04T02:09:16;-1.40;99.90
13585;DHT22;6863;48.402;9.994;2023-03-04T02:11:43;-1.40;99.90
13585;DHT22;6863;48.402;9.994;2023-03-04T02:14:10;-1.50;99.90
13585;DHT22;6863;48.402;9.994;2023-03-04T02:16:36;-1.40;99.90
13585;DHT22;6863;48.402;9.994;2023-03-04T02:19:04;-1.40;99.90
13585;DHT22;6863;48.402;9.994;2023-03-04T02:21:32;-1.40;99.90
13585;DHT22;6863;48.402;9.994;2023-03-04T02:26:25;-1.50;99.90
13585;DHT22;6863;48.402;9.994;2023-03-04T02:28:53;-1.50;99.90
13585;DHT22;6863;48.402;9.994;2023-03-04T02:31:40;-1.40;99.90
13585;DHT22;6863;48.402;9.994;2023-03-04T02:34:11;-1.40;99.90
13585;DHT22;6863;48.402;9.994;2023-03-04T02:36:37;-1.30;99.90
13585;DHT22;6863;48.402;9.994;2023-03-04T02:39:09;-1.30;99.90
13585;DHT22;6863;48.402;9.994;2023-03-04T02:41:36;-1.30;99.90
13585;DHT22;6863;48.402;9.994;2023-03-04T02:44:02;-1.30;99.90
13585;DHT22;6863;48.402;9.994;2023-03-04T02:46:27;-1.30;99.90
13585;DHT22;6863;48.402;9.994;2023-03-04T02:48:53;-1.30;99.90
13585;DHT22;6863;48.402;9.994;2023-03-04T02:51:19;-1.20;99.90
13585;DHT22;6863;48.402;9.994;2023-03-04T02:53:45;-1.20;99.90
13585;DHT22;6863;48.402;9.994;2023-03-04T02:56:10;-1.30;99.90
13585;DHT22;6863;48.402;9.994;2023-03-04T02:58:36;-1.30;99.90
13585;DHT22;6863;48.402;9.994;2023-03-04T03:01:04;-1.30;99.90
13585;DHT22;6863;48.402;9.994;2023-03-04T03:03:30;-1.30;99.90
13585;DHT22;6863;48.402;9.994;2023-03-04T03:05:55;-1.40;99.90
13585;DHT22;6863;48.402;9.994;2023-03-04T03:08:21;-1.40;99.90
13585;DHT22;6863;48.402;9.994;2023-03-04T03:10:46;-1.50;99.90
13585;DHT22;6863;48.402;9.994;2023-03-04T03:13:12;-1.50;99.90
13585;DHT22;6863;48.402;9.994;2023-03-04T03:15:37;-1.40;99.90
13585;DHT22;6863;48.402;9.994;2023-03-04T03:18:08;-1.40;99.90
13585;DHT22;6863;48.402;9.994;2023-03-04T03:20:37;-1.50;99.90
13585;DHT22;6863;48.402;9.994;2023-03-04T03:23:03;-1.50;99.90
13585;DHT22;6863;48.402;9.994;2023-03-04T03:25:29;-1.60;99.90
13585;DHT22;6863;48.402;9.994;2023-03-04T03:27:54;-1.70;99.90
13585;DHT22;6863;48.402;9.994;2023-03-04T03:30:20;-1.70;99.90
13585;DHT22;6863;48.402;9.994;2023-03-04T03:32:46;-1.70;99.90
13585;DHT22;6863;48.402;9.994;2023-03-04T03:35:11;-1.80;99.90
13585;DHT22;6863;48.402;9.994;2023-03-04T03:37:37;-1.90;99.90
13585;DHT22;6863;48.402;9.994;2023-03-04T03:40:03;-1.90;99.90
13585;DHT22;6863;48.402;9.994;2023-03-04T03:42:29;-1.90;99.90
13585;DHT22;6863;48.402;9.994;2023-03-04T03:44:55;-2.00;99.90
13585;DHT22;6863;48.402;9.994;2023-03-04T03:47:20;-2.10;99.90
13585;DHT22;6863;48.402;9.994;2023-03-04T03:49:46;-2.10;99.90
13585;DHT22;6863;48.402;9.994;2023-03-04T03:52:12;-2.10;99.90
13585;DHT22;6863;48.402;9.994;2023-03-04T03:54:37;-2.10;99.90
13585;DHT22;6863;48.402;9.994;2023-03-04T03:57:03;-2.20;99.90
13585;DHT22;6863;48.402;9.994;2023-03-04T03:59:29;-2.10;99.90
13585;DHT22;6863;48.402;9.994;2023-03-04T04:01:55;-2.10;99.90
13585;DHT22;6863;48.402;9.994;2023-03-04T04:04:20;-2.20;99.90
13585;DHT22;6863;48.402;9.994;2023-03-04T04:06:46;-2.20;99.90
13585;DHT22;6863;48.402;9.994;2023-03-04T04:09:11;-2.20;99.90
13585;DHT22;6863;48.402;9.994;2023-03-04T04:11:37;-2.20;99.90
13585;DHT22;6863;48.402;9.994;2023-03-04T04:14:03;-2.20;99.90
13585;DHT22;6863;48.402;9.994;2023-03-04T04:16:29;-2.30;99.90
13585;DHT22;6863;48.402;9.994;2023-03-04T04:18:54;-2.30;99.90
13585;DHT22;6863;48.402;9.994;2023-03-04T04:21:20;-2.30;99.90
13585;DHT22;6863;48.402;9.994;2023-03-04T04:23:45;-2.30;99.90
13585;DHT22;6863;48.402;9.994;2023-03-04T04:26:11;-2.30;99.90
13585;DHT22;6863;48.402;9.994;2023-03-04T04:28:37;-2.30;99.90
13585;DHT22;6863;48.402;9.994;2023-03-04T04:31:06;-2.40;99.90
13585;DHT22;6863;48.402;9.994;2023-03-04T04:33:33;-2.30;99.90
13585;DHT22;6863;48.402;9.994;2023-03-04T04:35:59;-2.40;99.90
13585;DHT22;6863;48.402;9.994;2023-03-04T04:38:26;-2.20;99.90
13585;DHT22;6863;48.402;9.994;2023-03-04T04:40:51;-2.10;99.90
13585;DHT22;6863;48.402;9.994;2023-03-04T04:43:17;-2.00;99.90
13585;DHT22;6863;48.402;9.994;2023-03-04T04:45:42;-1.90;99.90
13585;DHT22;6863;48.402;9.994;2023-03-04T04:48:08;-1.80;99.90
13585;DHT22;6863;48.402;9.994;2023-03-04T04:50:34;-1.80;99.90
13585;DHT22;6863;48.402;9.994;2023-03-04T04:52:59;-1.80;99.90
13585;DHT22;6863;48.402;9.994;2023-03-04T04:55:25;-1.90;99.90
13585;DHT22;6863;48.402;9.994;2023-03-04T04:57:51;-1.90;99.90
13585;DHT22;6863;48.402;9.994;2023-03-04T05:00:17;-1.80;99.90
13585;DHT22;6863;48.402;9.994;2023-03-04T05:02:43;-1.80;99.90
13585;DHT22;6863;48.402;9.994;2023-03-04T05:05:09;-1.80;99.90
13585;DHT22;6863;48.402;9.994;2023-03-04T05:07:35;-1.80;99.90
13585;DHT22;6863;48.402;9.994;2023-03-04T05:10:01;-1.80;99.90
13585;DHT22;6863;48.402;9.994;2023-03-04T05:12:27;-1.80;99.90
13585;DHT22;6863;48.402;9.994;2023-03-04T05:14:53;-1.90;99.90
13585;DHT22;6863;48.402;9.994;2023-03-04T05:17:18;-1.90;99.90
13585;DHT22;6863;48.402;9.994;2023-03-04T05:19:44;-1.90;99.90
13585;DHT22;6863;48.402;9.994;2023-03-04T05:22:09;-1.90;99.90
13585;DHT22;6863;48.402;9.994;2023-03-04T05:24:35;-2.00;99.90
13585;DHT22;6863;48.402;9.994;2023-03-04T05:27:01;-2.10;99.90
13585;DHT22;6863;48.402;9.994;2023-03-04T05:29:26;-2.20;99.90
13585;DHT22;6863;48.402;9.994;2023-03-04T05:31:52;-2.30;99.90
13585;DHT22;6863;48.402;9.994;2023-03-04T05:34:18;-2.30;99.90
13585;DHT22;6863;48.402;9.994;2023-03-04T05:36:43;-2.30;99.90
13585;DHT22;6863;48.402;9.994;2023-03-04T05:39:09;-2.30;99.90
13585;DHT22;6863;48.402;9.994;2023-03-04T05:41:35;-2.40;99.90
13585;DHT22;6863;48.402;9.994;2023-03-04T05:44:00;-2.40;99.90
13585;DHT22;6863;48.402;9.994;2023-03-04T05:46:26;-2.50;99.90
13585;DHT22;6863;48.402;9.994;2023-03-04T05:48:52;-2.50;99.90
13585;DHT22;6863;48.402;9.994;2023-03-04T05:51:18;-2.50;99.90
13585;DHT22;6863;48.402;9.994;2023-03-04T05:53:44;-2.60;99.90
13585;DHT22;6863;48.402;9.994;2023-03-04T05:56:15;-2.60;99.90
13585;DHT22;6863;48.402;9.994;2023-03-04T05:58:42;-2.50;99.90
13585;DHT22;6863;48.402;9.994;2023-03-04T06:01:08;-2.50;99.90
13585;DHT22;6863;48.402;9.994;2023-03-04T06:03:34;-2.50;99.90
13585;DHT22;6863;48.402;9.994;2023-03-04T06:05:59;-2.50;99.90
13585;DHT22;6863;48.402;9.994;2023-03-04T06:08:25;-2.50;99.90
13585;DHT22;6863;48.402;9.994;2023-03-04T06:10:54;-2.50;99.90
13585;DHT22;6863;48.402;9.994;2023-03-04T06:13:20;-2.50;99.90
13585;DHT22;6863;48.402;9.994;2023-03-04T06:15:46;-2.50;99.90
13585;DHT22;6863;48.402;9.994;2023-03-04T06:18:11;-2.40;99.90
13585;DHT22;6863;48.402;9.994;2023-03-04T06:20:37;-2.20;99.90
13585;DHT22;6863;48.402;9.994;2023-03-04T06:23:04;-2.20;99.90
13585;DHT22;6863;48.402;9.994;2023-03-04T06:25:30;-2.20;99.90
13585;DHT22;6863;48.402;9.994;2023-03-04T06:27:55;-2.20;99.90
13585;DHT22;6863;48.402;9.994;2023-03-04T06:30:21;-2.10;99.90
13585;DHT22;6863;48.402;9.994;2023-03-04T06:32:47;-2.10;99.90
13585;DHT22;6863;48.402;9.994;2023-03-04T06:35:14;-2.00;99.90
13585;DHT22;6863;48.402;9.994;2023-03-04T06:37:40;-1.90;99.90
13585;DHT22;6863;48.402;9.994;2023-03-04T06:40:06;-1.80;99.90
13585;DHT22;6863;48.402;9.994;2023-03-04T06:42:33;-1.70;99.90
13585;DHT22;6863;48.402;9.994;2023-03-04T06:44:59;-1.60;99.90
13585;DHT22;6863;48.402;9.994;2023-03-04T06:47:24;-1.50;99.90
13585;DHT22;6863;48.402;9.994;2023-03-04T06:49:50;-1.40;99.90
13585;DHT22;6863;48.402;9.994;2023-03-04T06:52:15;-1.40;99.90
13585;DHT22;6863;48.402;9.994;2023-03-04T06:54:41;-1.30;99.90
13585;DHT22;6863;48.402;9.994;2023-03-04T06:57:06;-1.20;99.90
13585;DHT22;6863;48.402;9.994;2023-03-04T06:59:32;-1.00;99.90
13585;DHT22;6863;48.402;9.994;2023-03-04T07:01:58;-0.80;99.90
13585;DHT22;6863;48.402;9.994;2023-03-04T07:04:24;-0.60;99.90
13585;DHT22;6863;48.402;9.994;2023-03-04T07:06:50;-0.30;99.90
13585;DHT22;6863;48.402;9.994;2023-03-04T07:09:16;-0.10;99.90
13585;DHT22;6863;48.402;9.994;2023-03-04T07:11:42;0.10;99.90
13585;DHT22;6863;48.402;9.994;2023-03-04T07:14:07;0.30;99.90
13585;DHT22;6863;48.402;9.994;2023-03-04T07:16:33;0.60;99.90
13585;DHT22;6863;48.402;9.994;2023-03-04T07:18:58;0.80;99.90
13585;DHT22;6863;48.402;9.994;2023-03-04T07:21:24;1.10;99.90
13585;DHT22;6863;48.402;9.994;2023-03-04T07:23:50;1.30;99.90
13585;DHT22;6863;48.402;9.994;2023-03-04T07:26:17;1.60;99.90
13585;DHT22;6863;48.402;9.994;2023-03-04T07:28:43;1.90;99.90
13585;DHT22;6863;48.402;9.994;2023-03-04T07:33:40;2.20;99.90
13585;DHT22;6863;48.402;9.994;2023-03-04T07:36:05;2.50;99.90
13585;DHT22;6863;48.402;9.994;2023-03-04T07:38:31;2.90;99.90
13585;DHT22;6863;48.402;9.994;2023-03-04T07:40:57;3.40;99.90
13585;DHT22;6863;48.402;9.994;2023-03-04T07:43:23;3.70;99.90
13585;DHT22;6863;48.402;9.994;2023-03-04T07:45:49;4.10;99.20
13585;DHT22;6863;48.402;9.994;2023-03-04T07:48:15;4.20;98.00
13585;DHT22;6863;48.402;9.994;2023-03-04T07:50:41;4.50;97.60
13585;DHT22;6863;48.402;9.994;2023-03-04T07:53:06;4.80;96.80
13585;DHT22;6863;48.402;9.994;2023-03-04T07:55:32;5.20;96.60
13585;DHT22;6863;48.402;9.994;2023-03-04T07:57:58;5.40;95.00
13585;DHT22;6863;48.402;9.994;2023-03-04T08:00:24;5.70;94.90
13585;DHT22;6863;48.402;9.994;2023-03-04T08:02:49;6.20;94.10
13585;DHT22;6863;48.402;9.994;2023-03-04T08:05:15;6.60;92.70
13585;DHT22;6863;48.402;9.994;2023-03-04T08:07:41;7.00;91.60
13585;DHT22;6863;48.402;9.994;2023-03-04T08:10:07;7.40;90.50
13585;DHT22;6863;48.402;9.994;2023-03-04T08:12:34;8.10;87.80
13585;DHT22;6863;48.402;9.994;2023-03-04T08:15:00;8.50;84.10
13585;DHT22;6863;48.402;9.994;2023-03-04T08:17:25;8.80;81.50
13585;DHT22;6863;48.402;9.994;2023-03-04T08:19:54;9.10;79.70
13585;DHT22;6863;48.402;9.994;2023-03-04T08:22:21;9.40;77.90
13585;DHT22;6863;48.402;9.994;2023-03-04T08:24:46;9.60;76.60
13585;DHT22;6863;48.402;9.994;2023-03-04T08:27:12;10.40;72.60
13585;DHT22;6863;48.402;9.994;2023-03-04T08:29:38;11.00;70.00
13585;DHT22;6863;48.402;9.994;2023-03-04T08:32:03;11.40;68.60
13585;DHT22;6863;48.402;9.994;2023-03-04T08:34:29;12.10;64.80
13585;DHT22;6863;48.402;9.994;2023-03-04T08:36:55;12.50;62.60
13585;DHT22;6863;48.402;9.994;2023-03-04T08:44:14;11.70;60.90
13585;DHT22;6863;48.402;9.994;2023-03-04T08:46:41;10.80;62.30
13585;DHT22;6863;48.402;9.994;2023-03-04T08:49:09;9.90;66.30
13585;DHT22;6863;48.402;9.994;2023-03-04T08:51:35;9.80;68.00
13585;DHT22;6863;48.402;9.994;2023-03-04T08:54:04;9.30;70.40
13585;DHT22;6863;48.402;9.994;2023-03-04T08:56:30;9.10;71.30
13585;DHT22;6863;48.402;9.994;2023-03-04T08:58:55;8.80;72.10
13585;DHT22;6863;48.402;9.994;2023-03-04T09:01:21;8.70;74.10
13585;DHT22;6863;48.402;9.994;2023-03-04T09:03:47;10.20;72.50
13585;DHT22;6863;48.402;9.994;2023-03-04T09:06:14;11.90;66.50
13585;DHT22;6863;48.402;9.994;2023-03-04T09:08:40;13.20;62.30
13585;DHT22;6863;48.402;9.994;2023-03-04T09:11:06;14.70;58.90
13585;DHT22;6863;48.402;9.994;2023-03-04T09:13:32;16.20;54.10
13585;DHT22;6863;48.402;9.994;2023-03-04T09:15:58;16.70;51.50
13585;DHT22;6863;48.402;9.994;2023-03-04T09:18:25;17.60;48.50
13585;DHT22;6863;48.402;9.994;2023-03-04T09:20:52;18.10;46.70
13585;DHT22;6863;48.402;9.994;2023-03-04T09:23:18;17.70;46.90
13585;DHT22;6863;48.402;9.994;2023-03-04T09:25:44;18.30;45.50
13585;DHT22;6863;48.402;9.994;2023-03-04T09:28:12;18.00;44.50
13585;DHT22;6863;48.402;9.994;2023-03-04T09:30:38;18.40;43.70
13585;DHT22;6863;48.402;9.994;2023-03-04T09:33:04;19.30;43.00
13585;DHT22;6863;48.402;9.994;2023-03-04T09:35:30;18.50;42.60
13585;DHT22;6863;48.402;9.994;2023-03-04T09:37:57;19.70;42.30
13585;DHT22;6863;48.402;9.994;2023-03-04T09:40:27;20.30;40.60
13585;DHT22;6863;48.402;9.994;2023-03-04T09:42:57;20.70;39.60
13585;DHT22;6863;48.402;9.994;2023-03-04T09:45:35;21.90;37.90
13585;DHT22;6863;48.402;9.994;2023-03-04T09:48:02;22.80;35.80
13585;DHT22;6863;48.402;9.994;2023-03-04T09:50:29;23.10;35.10
13585;DHT22;6863;48.402;9.994;2023-03-04T09:53:05;23.10;34.90
13585;DHT22;6863;48.402;9.994;2023-03-04T09:58:25;22.40;35.10
13585;DHT22;6863;48.402;9.994;2023-03-04T10:06:53;23.20;35.20
13585;DHT22;6863;48.402;9.994;2023-03-04T10:12:14;24.10;32.00
13585;DHT22;6863;48.402;9.994;2023-03-04T10:15:16;24.30;32.10
13585;DHT22;6863;48.402;9.994;2023-03-04T10:17:46;24.80;31.40
13585;DHT22;6863;48.402;9.994;2023-03-04T10:20:20;24.80;31.10
13585;DHT22;6863;48.402;9.994;2023-03-04T10:22:48;25.90;29.60
13585;DHT22;6863;48.402;9.994;2023-03-04T10:25:21;24.90;30.30
13585;DHT22;6863;48.402;9.994;2023-03-04T10:30:29;24.30;31.20
13585;DHT22;6863;48.402;9.994;2023-03-04T10:32:56;24.60;30.30
13585;DHT22;6863;48.402;9.994;2023-03-04T10:35:27;24.70;29.90
13585;DHT22;6863;48.402;9.994;2023-03-04T10:38:01;24.60;30.30
13585;DHT22;6863;48.402;9.994;2023-03-04T10:40:27;24.70;30.00
13585;DHT22;6863;48.402;9.994;2023-03-04T10:42:53;25.10;29.80
13585;DHT22;6863;48.402;9.994;2023-03-04T10:45:37;25.00;29.80
13585;DHT22;6863;48.402;9.994;2023-03-04T10:48:03;25.30;29.70
13585;DHT22;6863;48.402;9.994;2023-03-04T10:50:29;26.50;28.70
13585;DHT22;6863;48.402;9.994;2023-03-04T10:52:56;27.20;28.00
13585;DHT22;6863;48.402;9.994;2023-03-04T10:55:28;26.30;28.20
13585;DHT22;6863;48.402;9.994;2023-03-04T10:58:03;26.50;28.30
13585;DHT22;6863;48.402;9.994;2023-03-04T11:00:33;26.00;28.60
13585;DHT22;6863;48.402;9.994;2023-03-04T11:05:46;26.20;28.00
13585;DHT22;6863;48.402;9.994;2023-03-04T11:08:17;26.10;28.40
13585;DHT22;6863;48.402;9.994;2023-03-04T11:10:43;25.90;28.20
13585;DHT22;6863;48.402;9.994;2023-03-04T11:13:17;25.50;28.40
13585;DHT22;6863;48.402;9.994;2023-03-04T11:18:23;25.60;28.40
13585;DHT22;6863;48.402;9.994;2023-03-04T11:20:53;25.20;28.20
13585;DHT22;6863;48.402;9.994;2023-03-04T11:23:38;25.40;28.40
13585;DHT22;6863;48.402;9.994;2023-03-04T11:26:13;26.20;27.80
13585;DHT22;6863;48.402;9.994;2023-03-04T11:28:52;26.60;27.50
13585;DHT22;6863;48.402;9.994;2023-03-04T11:31:46;27.40;26.60
13585;DHT22;6863;48.402;9.994;2023-03-04T11:34:28;27.70;26.90
13585;DHT22;6863;48.402;9.994;2023-03-04T11:37:15;27.60;26.30
13585;DHT22;6863;48.402;9.994;2023-03-04T11:39:56;28.30;25.70
13585;DHT22;6863;48.402;9.994;2023-03-04T11:44:49;26.20;27.20
13585;DHT22;6863;48.402;9.994;2023-03-04T11:47:27;26.60;26.90
13585;DHT22;6863;48.402;9.994;2023-03-04T11:52:38;27.60;25.80
13585;DHT22;6863;48.402;9.994;2023-03-04T11:58:16;27.90;26.10
13585;DHT22;6863;48.402;9.994;2023-03-04T12:01:09;27.40;25.80
13585;DHT22;6863;48.402;9.994;2023-03-04T12:04:19;26.80;26.30
13585;DHT22;6863;48.402;9.994;2023-03-04T12:15:16;27.20;25.50
13585;DHT22;6863;48.402;9.994;2023-03-04T12:20:26;27.00;26.00
13585;DHT22;6863;48.402;9.994;2023-03-04T12:40:29;25.50;26.80
13585;DHT22;6863;48.402;9.994;2023-03-04T12:45:46;25.30;26.70
13585;DHT22;6863;48.402;9.994;2023-03-04T12:48:36;24.90;26.70
13585;DHT22;6863;48.402;9.994;2023-03-04T12:51:25;23.20;28.00
13585;DHT22;6863;48.402;9.994;2023-03-04T12:57:18;24.40;27.30
13585;DHT22;6863;48.402;9.994;2023-03-04T13:10:45;23.60;26.90
13585;DHT22;6863;48.402;9.994;2023-03-04T13:13:35;24.00;26.80
13585;DHT22;6863;48.402;9.994;2023-03-04T13:18:38;24.20;27.10
13585;DHT22;6863;48.402;9.994;2023-03-04T13:21:27;24.40;26.60
13585;DHT22;6863;48.402;9.994;2023-03-04T13:23:54;24.20;26.20
13585;DHT22;6863;48.402;9.994;2023-03-04T13:32:00;23.00;27.80
13585;DHT22;6863;48.402;9.994;2023-03-04T13:34:51;23.90;27.30
13585;DHT22;6863;48.402;9.994;2023-03-04T13:43:24;24.30;26.70
13585;DHT22;6863;48.402;9.994;2023-03-04T13:45:50;24.50;26.20
13585;DHT22;6863;48.402;9.994;2023-03-04T13:48:31;23.10;26.60
13585;DHT22;6863;48.402;9.994;2023-03-04T13:50:57;21.70;28.10
13585;DHT22;6863;48.402;9.994;2023-03-04T13:56:35;20.40;29.60
13585;DHT22;6863;48.402;9.994;2023-03-04T14:01:56;20.40;28.90
13585;DHT22;6863;48.402;9.994;2023-03-04T14:04:36;20.80;29.10
13585;DHT22;6863;48.402;9.994;2023-03-04T14:09:55;20.90;28.80
13585;DHT22;6863;48.402;9.994;2023-03-04T14:12:22;22.30;28.00
13585;DHT22;6863;48.402;9.994;2023-03-04T14:14:51;22.20;27.60
13585;DHT22;6863;48.402;9.994;2023-03-04T14:17:21;22.20;27.80
13585;DHT22;6863;48.402;9.994;2023-03-04T14:19:49;21.80;27.80
13585;DHT22;6863;48.402;9.994;2023-03-04T14:25:33;22.10;27.50
13585;DHT22;6863;48.402;9.994;2023-03-04T14:28:19;21.00;28.20
13585;DHT22;6863;48.402;9.994;2023-03-04T14:30:53;21.50;28.40
13585;DHT22;6863;48.402;9.994;2023-03-04T14:33:29;21.30;28.10
13585;DHT22;6863;48.402;9.994;2023-03-04T14:36:00;20.70;28.80
13585;DHT22;6863;48.402;9.994;2023-03-04T14:38:30;20.60;28.50
13585;DHT22;6863;48.402;9.994;2023-03-04T14:41:08;19.80;29.20
13585;DHT22;6863;48.402;9.994;2023-03-04T14:43:41;19.70;29.90
13585;DHT22;6863;48.402;9.994;2023-03-04T14:46:14;20.70;29.40
13585;DHT22;6863;48.402;9.994;2023-03-04T14:48:50;21.60;27.80
13585;DHT22;6863;48.402;9.994;2023-03-04T14:54:04;20.40;28.60
13585;DHT22;6863;48.402;9.994;2023-03-04T14:56:33;19.30;29.40
13585;DHT22;6863;48.402;9.994;2023-03-04T14:58:59;17.20;31.30
13585;DHT22;6863;48.402;9.994;2023-03-04T15:01:44;16.00;33.60
13585;DHT22;6863;48.402;9.994;2023-03-04T15:04:12;14.60;35.30
13585;DHT22;6863;48.402;9.994;2023-03-04T15:06:50;13.70;37.20
13585;DHT22;6863;48.402;9.994;2023-03-04T15:09:22;13.50;38.20
13585;DHT22;6863;48.402;9.994;2023-03-04T15:11:50;14.10;38.50
13585;DHT22;6863;48.402;9.994;2023-03-04T15:14:39;14.20;37.60
13585;DHT22;6863;48.402;9.994;2023-03-04T15:17:18;14.00;37.70
13585;DHT22;6863;48.402;9.994;2023-03-04T15:20:23;13.30;38.20
13585;DHT22;6863;48.402;9.994;2023-03-04T15:25:17;11.10;42.10
13585;DHT22;6863;48.402;9.994;2023-03-04T15:27:45;10.70;42.90
13585;DHT22;6863;48.402;9.994;2023-03-04T15:30:29;10.90;43.90
13585;DHT22;6863;48.402;9.994;2023-03-04T15:32:58;11.20;43.20
13585;DHT22;6863;48.402;9.994;2023-03-04T15:35:27;10.60;44.20
13585;DHT22;6863;48.402;9.994;2023-03-04T15:37:54;10.00;45.10
13585;DHT22;6863;48.402;9.994;2023-03-04T15:40:41;9.60;46.90
13585;DHT22;6863;48.402;9.994;2023-03-04T15:43:12;9.10;47.70
13585;DHT22;6863;48.402;9.994;2023-03-04T15:45:41;8.80;49.10
13585;DHT22;6863;48.402;9.994;2023-03-04T15:48:11;8.30;50.00
13585;DHT22;6863;48.402;9.994;2023-03-04T15:50:54;8.10;50.50
13585;DHT22;6863;48.402;9.994;2023-03-04T15:56:27;7.40;52.60
13585;DHT22;6863;48.402;9.994;2023-03-04T15:59:08;6.70;52.80
13585;DHT22;6863;48.402;9.994;2023-03-04T16:01:34;6.20;54.50
13585;DHT22;6863;48.402;9.994;2023-03-04T16:04:03;6.10;55.50
13585;DHT22;6863;48.402;9.994;2023-03-04T16:06:30;5.90;55.40
13585;DHT22;6863;48.402;9.994;2023-03-04T16:08:56;5.30;56.70
13585;DHT22;6863;48.402;9.994;2023-03-04T16:11:25;5.10;58.60
13585;DHT22;6863;48.402;9.994;2023-03-04T16:13:51;4.90;59.50
13585;DHT22;6863;48.402;9.994;2023-03-04T16:16:17;4.80;60.30
13585;DHT22;6863;48.402;9.994;2023-03-04T16:18:46;4.80;60.70
13585;DHT22;6863;48.402;9.994;2023-03-04T16:21:17;4.70;61.60
13585;DHT22;6863;48.402;9.994;2023-03-04T16:23:47;4.70;62.30
13585;DHT22;6863;48.402;9.994;2023-03-04T16:26:16;4.50;63.20
13585;DHT22;6863;48.402;9.994;2023-03-04T16:28:42;4.40;64.40
13585;DHT22;6863;48.402;9.994;2023-03-04T16:31:17;4.50;64.70
13585;DHT22;6863;48.402;9.994;2023-03-04T16:33:43;4.40;65.20
13585;DHT22;6863;48.402;9.994;2023-03-04T16:36:19;4.30;66.00
13585;DHT22;6863;48.402;9.994;2023-03-04T16:38:46;4.20;67.40
13585;DHT22;6863;48.402;9.994;2023-03-04T16:41:15;4.10;68.40
13585;DHT22;6863;48.402;9.994;2023-03-04T16:43:42;4.10;69.20
13585;DHT22;6863;48.402;9.994;2023-03-04T16:46:10;3.90;69.50
13585;DHT22;6863;48.402;9.994;2023-03-04T16:48:36;3.50;70.60
13585;DHT22;6863;48.402;9.994;2023-03-04T16:51:03;3.40;72.90
13585;DHT22;6863;48.402;9.994;2023-03-04T16:53:36;3.30;75.30
13585;DHT22;6863;48.402;9.994;2023-03-04T16:56:13;3.30;77.10
13585;DHT22;6863;48.402;9.994;2023-03-04T16:58:40;3.40;77.80
13585;DHT22;6863;48.402;9.994;2023-03-04T17:01:06;3.30;78.60
13585;DHT22;6863;48.402;9.994;2023-03-04T17:03:32;3.20;79.80
13585;DHT22;6863;48.402;9.994;2023-03-04T17:05:57;3.10;80.70
13585;DHT22;6863;48.402;9.994;2023-03-04T17:08:23;3.00;82.60
13585;DHT22;6863;48.402;9.994;2023-03-04T17:10:49;2.90;83.30
13585;DHT22;6863;48.402;9.994;2023-03-04T17:13:14;2.80;84.60
13585;DHT22;6863;48.402;9.994;2023-03-04T17:15:40;2.80;86.00
13585;DHT22;6863;48.402;9.994;2023-03-04T17:18:09;2.80;86.40
13585;DHT22;6863;48.402;9.994;2023-03-04T17:20:38;2.80;86.80
13585;DHT22;6863;48.402;9.994;2023-03-04T17:23:05;2.80;86.90
13585;DHT22;6863;48.402;9.994;2023-03-04T17:25:30;2.70;88.00
13585;DHT22;6863;48.402;9.994;2023-03-04T17:27:56;2.70;88.60
13585;DHT22;6863;48.402;9.994;2023-03-04T17:30:21;2.60;89.40
13585;DHT22;6863;48.402;9.994;2023-03-04T17:32:47;2.60;90.30
13585;DHT22;6863;48.402;9.994;2023-03-04T17:35:12;2.40;90.40
13585;DHT22;6863;48.402;9.994;2023-03-04T17:37:42;2.40;90.70
13585;DHT22;6863;48.402;9.994;2023-03-04T17:40:11;2.30;90.90
13585;DHT22;6863;48.402;9.994;2023-03-04T17:42:39;2.30;91.70
13585;DHT22;6863;48.402;9.994;2023-03-04T17:45:06;2.30;91.20
13585;DHT22;6863;48.402;9.994;2023-03-04T17:47:32;2.30;91.50
13585;DHT22;6863;48.402;9.994;2023-03-04T17:49:57;2.30;91.50
13585;DHT22;6863;48.402;9.994;2023-03-04T17:52:23;2.30;91.80
13585;DHT22;6863;48.402;9.994;2023-03-04T17:54:48;2.30;92.20
13585;DHT22;6863;48.402;9.994;2023-03-04T17:57:14;2.30;92.10
13585;DHT22;6863;48.402;9.994;2023-03-04T17:59:40;2.30;92.50